createdAt,value
2022-10-24T00:01:29.313Z,21.40
2022-10-24T00:03:56.862Z,17.70
2022-10-24T00:06:24.375Z,26.05
2022-10-24T00:08:52.350Z,22.55
2022-10-24T00:11:23.116Z,22.63
2022-10-24T00:13:51.644Z,16.73
2022-10-24T00:16:19.687Z,19.48
2022-10-24T00:18:48.128Z,15.50
2022-10-24T00:21:16.942Z,20.38
2022-10-24T00:23:44.913Z,18.52
2022-10-24T00:26:13.174Z,17.33
2022-10-24T00:28:41.349Z,19.48
2022-10-24T00:31:13.029Z,13.15
2022-10-24T00:33:40.741Z,14.43
2022-10-24T00:36:12.649Z,18.77
2022-10-24T00:38:40.270Z,15.35
2022-10-24T00:41:10.572Z,11.30
2022-10-24T00:43:37.881Z,20.88
2022-10-24T00:46:05.329Z,25.85
2022-10-24T00:48:41.004Z,25.58
2022-10-24T00:51:27.573Z,19.80
2022-10-24T00:54:00.488Z,22.80
2022-10-24T00:56:31.811Z,20.95
2022-10-24T00:59:01.861Z,24.55
2022-10-24T01:01:29.321Z,22.52
2022-10-24T01:03:56.680Z,23.08
2022-10-24T01:06:39.668Z,23.95
2022-10-24T01:09:28.235Z,23.42
2022-10-24T01:12:24.880Z,21.80
2022-10-24T01:15:28.414Z,29.05
2022-10-24T01:18:16.779Z,26.58
2022-10-24T01:21:25.239Z,19.75
2022-10-24T01:24:10.907Z,29.50
2022-10-24T01:27:08.845Z,26.40
2022-10-24T01:30:13.923Z,26.20
2022-10-24T01:33:02.501Z,22.20
2022-10-24T01:35:36.662Z,22.23
2022-10-24T01:38:19.525Z,19.95
2022-10-24T01:40:53.336Z,20.30
2022-10-24T01:43:26.249Z,16.42
2022-10-24T01:46:03.573Z,25.00
2022-10-24T01:48:36.386Z,19.90
2022-10-24T01:51:07.891Z,23.08
2022-10-24T01:53:37.109Z,21.23
2022-10-24T01:56:04.730Z,15.60
2022-10-24T01:58:32.034Z,15.73
2022-10-24T02:01:02.486Z,25.80
2022-10-24T02:03:51.037Z,18.00
2022-10-24T02:06:41.706Z,13.55
2022-10-24T02:09:17.821Z,16.13
2022-10-24T02:11:47.758Z,12.60
2022-10-24T02:14:26.029Z,20.13
2022-10-24T02:16:54.112Z,14.82
2022-10-24T02:19:22.082Z,19.10
2022-10-24T02:22:07.566Z,16.85
2022-10-24T02:24:43.954Z,21.15
2022-10-24T02:27:16.642Z,18.15
2022-10-24T02:29:51.582Z,16.77
2022-10-24T02:32:42.760Z,24.50
2022-10-24T02:35:12.900Z,13.60
2022-10-24T02:37:47.615Z,18.23
2022-10-24T02:40:17.615Z,18.85
2022-10-24T02:42:47.777Z,18.00
2022-10-24T02:45:16.566Z,15.73
2022-10-24T02:47:45.657Z,15.43
2022-10-24T02:50:14.335Z,17.83
2022-10-24T02:52:43.233Z,15.27
2022-10-24T02:55:12.199Z,13.75
2022-10-24T02:57:40.364Z,15.77
2022-10-24T03:00:08.751Z,17.38
2022-10-24T03:02:36.040Z,15.07
2022-10-24T03:05:03.893Z,21.85
2022-10-24T03:10:04.218Z,17.45
2022-10-24T03:12:31.678Z,14.95
2022-10-24T03:14:59.114Z,17.67
2022-10-24T03:17:26.562Z,23.25
2022-10-24T03:19:53.882Z,21.48
2022-10-24T03:22:21.330Z,15.45
2022-10-24T03:24:54.991Z,16.02
2022-10-24T03:27:23.333Z,19.73
2022-10-24T03:29:50.793Z,23.30
2022-10-24T03:32:18.103Z,21.67
2022-10-24T03:34:45.497Z,19.35
2022-10-24T03:37:13.158Z,20.67
2022-10-24T03:39:41.229Z,22.02
2022-10-24T03:42:08.515Z,19.27
2022-10-24T03:44:35.976Z,19.60
2022-10-24T03:47:04.016Z,21.67
2022-10-24T03:49:32.539Z,18.90
2022-10-24T03:51:59.872Z,22.35
2022-10-24T03:54:27.316Z,17.25
2022-10-24T03:56:54.929Z,16.95
2022-10-24T03:59:22.316Z,18.88
2022-10-24T04:01:49.927Z,20.75
2022-10-24T04:04:18.978Z,25.67
2022-10-24T04:06:46.462Z,22.88
2022-10-24T04:09:13.733Z,29.35
2022-10-24T04:11:41.176Z,24.20
2022-10-24T04:14:09.903Z,22.92
2022-10-24T04:16:37.433Z,23.17
2022-10-24T04:19:05.314Z,23.38
2022-10-24T04:21:32.683Z,19.30
2022-10-24T04:24:00.119Z,17.67
2022-10-24T04:26:27.666Z,24.15
2022-10-24T04:28:54.875Z,19.42
2022-10-24T04:31:23.715Z,30.67
2022-10-24T04:33:51.266Z,22.83
2022-10-24T04:36:18.772Z,25.13
2022-10-24T04:38:46.148Z,20.77
2022-10-24T04:41:13.511Z,28.30
2022-10-24T04:43:41.015Z,25.05
2022-10-24T04:46:08.489Z,18.27
2022-10-24T04:48:35.857Z,23.40
2022-10-24T04:51:03.511Z,25.52
2022-10-24T04:53:31.168Z,26.95
2022-10-24T04:55:58.534Z,17.85
2022-10-24T04:58:25.850Z,19.80
2022-10-24T05:00:53.294Z,23.33
2022-10-24T05:03:21.533Z,23.77
2022-10-24T05:05:49.282Z,20.00
2022-10-24T05:08:17.345Z,21.60
2022-10-24T05:10:44.789Z,22.40
2022-10-24T05:13:12.378Z,27.40
2022-10-24T05:15:40.014Z,22.77
2022-10-24T05:18:07.457Z,25.40
2022-10-24T05:20:34.941Z,25.67
2022-10-24T05:23:02.230Z,29.25
2022-10-24T05:25:29.549Z,37.95
2022-10-24T05:27:56.921Z,21.48
2022-10-24T05:30:24.199Z,28.48
2022-10-24T05:32:51.613Z,29.25
2022-10-24T05:35:18.929Z,30.88
2022-10-24T05:37:46.341Z,28.98
2022-10-24T05:40:14.365Z,33.05
2022-10-24T05:42:42.049Z,44.78
2022-10-24T05:45:11.120Z,54.08
2022-10-24T05:47:38.538Z,36.60
2022-10-24T05:50:07.728Z,44.17
2022-10-24T05:52:36.730Z,51.17
2022-10-24T05:55:08.653Z,48.97
2022-10-24T05:57:38.286Z,43.00
2022-10-24T06:00:12.026Z,58.28
2022-10-24T06:02:40.086Z,60.30
2022-10-24T06:05:08.750Z,50.13
2022-10-24T06:07:36.476Z,46.08
2022-10-24T06:10:05.879Z,77.97
2022-10-24T06:12:33.596Z,61.72
2022-10-24T06:15:01.214Z,46.00
2022-10-24T06:17:28.430Z,57.20
2022-10-24T06:19:55.834Z,54.30
2022-10-24T06:22:25.546Z,65.32
2022-10-24T06:24:52.920Z,47.03
2022-10-24T06:27:20.210Z,48.47
2022-10-24T06:29:48.594Z,46.60
2022-10-24T06:32:15.835Z,60.35
2022-10-24T06:34:43.474Z,52.17
2022-10-24T06:37:10.900Z,54.38
2022-10-24T06:39:38.201Z,67.95
2022-10-24T06:42:05.610Z,45.00
2022-10-24T06:44:34.324Z,47.20
2022-10-24T06:47:02.815Z,56.38
2022-10-24T06:49:30.242Z,62.38
2022-10-24T06:51:58.840Z,57.00
2022-10-24T06:54:29.321Z,51.60
2022-10-24T06:56:57.724Z,49.55
2022-10-24T06:59:27.381Z,63.88
2022-10-24T07:01:54.902Z,57.63
2022-10-24T07:04:22.371Z,48.65
2022-10-24T07:06:49.587Z,65.97
2022-10-24T07:09:17.661Z,40.33
2022-10-24T07:11:45.377Z,48.05
2022-10-24T07:14:13.136Z,41.90
2022-10-24T07:16:40.935Z,39.95
2022-10-24T07:19:08.720Z,34.25
2022-10-24T07:21:36.061Z,43.33
2022-10-24T07:24:05.107Z,27.95
2022-10-24T07:26:32.682Z,25.67
2022-10-24T07:31:32.740Z,57.17
2022-10-24T07:34:02.857Z,48.80
2022-10-24T07:36:33.532Z,53.70
2022-10-24T07:39:02.092Z,50.78
2022-10-24T07:41:31.799Z,43.72
2022-10-24T07:44:02.795Z,47.75
2022-10-24T07:46:30.601Z,45.88
2022-10-24T07:48:58.372Z,45.50
2022-10-24T07:51:28.771Z,43.50
2022-10-24T07:53:58.600Z,55.17
2022-10-24T07:56:26.329Z,48.85
2022-10-24T07:58:53.731Z,49.90
2022-10-24T08:01:24.514Z,50.60
2022-10-24T08:03:52.502Z,66.35
2022-10-24T08:06:23.852Z,84.82
2022-10-24T08:08:51.324Z,67.35
2022-10-24T08:11:24.943Z,72.97
2022-10-24T08:13:54.244Z,59.40
2022-10-24T08:16:23.535Z,66.00
2022-10-24T08:18:53.007Z,62.05
2022-10-24T08:21:22.967Z,50.60
2022-10-24T08:23:54.050Z,56.80
2022-10-24T08:26:24.998Z,55.78
2022-10-24T08:28:53.788Z,70.35
2022-10-24T08:31:23.368Z,57.30
2022-10-24T08:33:55.848Z,65.28
2022-10-24T08:36:27.967Z,47.05
2022-10-24T08:38:56.185Z,62.53
2022-10-24T08:41:35.978Z,51.90
2022-10-24T08:44:07.054Z,48.10
2022-10-24T08:46:49.361Z,46.92
2022-10-24T08:49:25.054Z,57.10
2022-10-24T08:52:32.033Z,69.55
2022-10-24T08:55:30.871Z,56.55
2022-10-24T08:58:06.452Z,49.08
2022-10-24T09:00:39.873Z,61.42
2022-10-24T09:03:22.952Z,72.03
2022-10-24T09:06:00.067Z,66.88
2022-10-24T09:08:34.769Z,64.47
2022-10-24T09:11:05.033Z,60.00
2022-10-24T09:13:38.432Z,56.05
2022-10-24T09:16:05.910Z,49.70
2022-10-24T09:18:39.444Z,66.63
2022-10-24T09:21:08.835Z,55.03
2022-10-24T09:23:38.287Z,68.03
2022-10-24T09:26:13.197Z,69.03
2022-10-24T09:28:40.942Z,56.88
2022-10-24T09:31:20.968Z,57.72
2022-10-24T09:33:50.165Z,44.17
2022-10-24T09:36:19.234Z,48.10
2022-10-24T09:38:49.076Z,66.03
2022-10-24T09:41:28.604Z,54.00
2022-10-24T09:44:01.565Z,47.90
2022-10-24T09:46:49.389Z,52.08
2022-10-24T09:49:26.705Z,52.78
2022-10-24T09:52:16.671Z,39.92
2022-10-24T09:54:44.992Z,50.95
2022-10-24T09:57:12.364Z,29.92
2022-10-24T09:59:42.728Z,42.58
2022-10-24T10:02:35.083Z,42.00
2022-10-24T10:05:05.253Z,33.22
2022-10-24T10:07:34.732Z,42.10
2022-10-24T10:10:22.045Z,42.60
2022-10-24T10:13:20.448Z,30.95
2022-10-24T10:15:59.290Z,34.10
2022-10-24T10:18:34.972Z,36.38
2022-10-24T10:21:07.200Z,30.30
2022-10-24T10:23:46.475Z,38.92
2022-10-24T10:26:31.219Z,39.30
2022-10-24T10:29:21.178Z,31.27
2022-10-24T10:32:08.055Z,42.72
2022-10-24T10:34:46.332Z,31.90
2022-10-24T10:37:19.655Z,33.55
2022-10-24T10:40:08.028Z,42.35
2022-10-24T10:43:18.519Z,36.20
2022-10-24T10:45:51.132Z,34.38
2022-10-24T10:48:30.090Z,44.17
2022-10-24T10:51:12.825Z,34.25
2022-10-24T10:53:49.320Z,41.83
2022-10-24T10:56:35.303Z,31.35
2022-10-24T10:59:16.991Z,49.00
2022-10-24T11:02:13.086Z,36.30
2022-10-24T11:04:54.226Z,49.92
2022-10-24T11:07:46.884Z,38.63
2022-10-24T11:10:21.131Z,31.25
2022-10-24T11:12:48.703Z,33.97
2022-10-24T11:18:18.063Z,35.17
2022-10-24T11:20:57.967Z,43.63
2022-10-24T11:23:30.938Z,38.92
2022-10-24T11:26:10.496Z,38.90
2022-10-24T11:28:57.559Z,51.38
2022-10-24T11:31:37.780Z,40.47
2022-10-24T11:34:10.932Z,42.63
2022-10-24T11:37:11.125Z,44.38
2022-10-24T11:39:48.637Z,47.08
2022-10-24T11:42:22.055Z,38.78
2022-10-24T11:44:56.280Z,31.80
2022-10-24T11:47:26.589Z,38.07
2022-10-24T11:50:11.992Z,47.97
2022-10-24T11:52:45.319Z,43.47
2022-10-24T11:55:17.198Z,29.65
2022-10-24T11:57:48.664Z,38.15
2022-10-24T12:00:21.782Z,45.45
2022-10-24T12:03:17.026Z,36.88
2022-10-24T12:05:44.289Z,41.03
2022-10-24T12:08:30.465Z,28.95
2022-10-24T12:11:26.421Z,36.60
2022-10-24T12:14:12.386Z,28.85
2022-10-24T12:17:09.076Z,48.33
2022-10-24T12:19:42.775Z,34.33
2022-10-24T12:22:17.963Z,36.53
2022-10-24T12:24:47.184Z,38.85
2022-10-24T12:27:33.320Z,40.28
2022-10-24T12:30:17.961Z,36.42
2022-10-24T12:32:52.503Z,37.28
2022-10-24T12:35:31.897Z,42.42
2022-10-24T12:38:00.144Z,39.35
2022-10-24T12:40:45.720Z,27.58
2022-10-24T12:43:15.487Z,26.27
2022-10-24T12:45:43.071Z,38.28
2022-10-24T12:48:14.581Z,37.92
2022-10-24T12:50:41.854Z,28.95
2022-10-24T12:53:31.895Z,31.05
2022-10-24T12:55:59.137Z,39.70
2022-10-24T12:58:32.302Z,27.63
2022-10-24T13:01:27.581Z,32.38
2022-10-24T13:04:10.935Z,32.53
2022-10-24T13:07:16.529Z,34.78
2022-10-24T13:10:09.927Z,37.03
2022-10-24T13:16:19.161Z,35.63
2022-10-24T13:19:01.687Z,30.98
2022-10-24T13:21:59.229Z,30.30
2022-10-24T13:24:40.837Z,22.10
2022-10-24T13:27:12.972Z,30.27
2022-10-24T13:29:41.456Z,29.23
2022-10-24T13:32:08.848Z,27.10
2022-10-24T13:34:58.063Z,29.15
2022-10-24T13:37:47.835Z,27.98
2022-10-24T13:40:42.169Z,24.33
2022-10-24T13:43:21.474Z,21.63
2022-10-24T13:45:52.038Z,28.05
2022-10-24T13:48:22.751Z,25.48
2022-10-24T13:51:15.067Z,36.63
2022-10-24T13:53:55.169Z,32.83
2022-10-24T13:56:22.542Z,29.33
2022-10-24T13:58:50.024Z,24.25
2022-10-24T14:01:20.209Z,24.02
2022-10-24T14:03:49.988Z,27.55
2022-10-24T14:06:23.631Z,30.60
2022-10-24T14:09:02.770Z,27.35
2022-10-24T14:11:33.489Z,23.58
2022-10-24T14:14:05.769Z,35.55
2022-10-24T14:16:35.257Z,28.13
2022-10-24T14:19:18.800Z,22.42
2022-10-24T14:21:49.268Z,28.45
2022-10-24T14:24:21.561Z,31.23
2022-10-24T14:26:53.366Z,31.40
2022-10-24T14:29:33.598Z,30.20
2022-10-24T14:32:08.142Z,26.13
2022-10-24T14:34:37.839Z,23.42
2022-10-24T14:37:07.936Z,23.85
2022-10-24T14:39:36.034Z,20.42
2022-10-24T14:42:03.568Z,29.83
2022-10-24T14:44:37.353Z,26.83
2022-10-24T14:49:37.854Z,26.80
2022-10-24T14:52:12.244Z,25.52
2022-10-24T14:54:51.379Z,33.83
2022-10-24T14:57:23.357Z,21.30
2022-10-24T14:59:53.551Z,28.70
2022-10-24T15:02:36.466Z,28.60
2022-10-24T15:05:22.581Z,23.02
2022-10-24T15:08:16.649Z,27.85
2022-10-24T15:10:43.203Z,22.42
2022-10-24T15:13:15.907Z,27.05
2022-10-24T15:15:55.326Z,30.30
2022-10-24T15:18:37.056Z,29.05
2022-10-24T15:21:11.298Z,30.95
2022-10-24T15:23:56.410Z,34.10
2022-10-24T15:26:40.922Z,27.40
2022-10-24T15:29:14.462Z,25.20
2022-10-24T15:31:45.150Z,22.45
2022-10-24T15:34:20.797Z,27.02
2022-10-24T15:36:50.901Z,26.50
2022-10-24T15:39:24.822Z,39.92
2022-10-24T15:41:53.503Z,38.05
2022-10-24T15:44:25.341Z,44.72
2022-10-24T15:46:53.586Z,42.65
2022-10-24T15:49:21.322Z,35.22
2022-10-24T15:51:50.603Z,41.95
2022-10-24T15:54:21.149Z,41.03
2022-10-24T15:56:49.649Z,42.67
2022-10-24T15:59:18.814Z,46.85
2022-10-24T16:01:51.257Z,44.72
2022-10-24T16:04:19.090Z,57.33
2022-10-24T16:06:46.484Z,54.58
2022-10-24T16:09:23.295Z,49.67
2022-10-24T16:11:50.791Z,40.38
2022-10-24T16:14:21.022Z,41.20
2022-10-24T16:16:48.608Z,37.92
2022-10-24T16:19:17.515Z,46.08
2022-10-24T16:21:45.354Z,41.80
2022-10-24T16:24:13.436Z,33.28
2022-10-24T16:26:41.632Z,35.35
2022-10-24T16:29:08.944Z,45.05
2022-10-24T16:31:36.270Z,41.00
2022-10-24T16:34:04.320Z,39.95
2022-10-24T16:36:33.055Z,47.80
2022-10-24T16:39:01.737Z,55.15
2022-10-24T16:41:29.130Z,48.28
2022-10-24T16:43:57.737Z,48.92
2022-10-24T16:46:27.440Z,47.88
2022-10-24T16:48:55.389Z,51.58
2022-10-24T16:51:27.751Z,48.83
2022-10-24T16:54:00.484Z,51.15
2022-10-24T16:56:27.926Z,55.17
2022-10-24T16:58:55.265Z,52.78
2022-10-24T17:01:23.463Z,56.03
2022-10-24T17:03:50.971Z,43.85
2022-10-24T17:06:18.990Z,59.05
2022-10-24T17:08:46.280Z,43.08
2022-10-24T17:11:39.400Z,58.97
2022-10-24T17:14:02.480Z,56.20
2022-10-24T17:16:30.486Z,44.60
2022-10-24T17:19:12.587Z,53.42
2022-10-24T17:21:43.530Z,45.57
2022-10-24T17:24:12.445Z,51.47
2022-10-24T17:26:41.264Z,50.95
2022-10-24T17:29:12.786Z,47.15
2022-10-24T17:31:40.118Z,43.53
2022-10-24T17:34:07.759Z,49.25
2022-10-24T17:36:38.456Z,38.47
2022-10-24T17:39:11.416Z,52.72
2022-10-24T17:41:43.379Z,44.20
2022-10-24T17:44:17.818Z,55.22
2022-10-24T17:46:46.166Z,63.97
2022-10-24T17:49:17.913Z,45.17
2022-10-24T17:51:49.230Z,50.42
2022-10-24T17:54:16.895Z,47.08
2022-10-24T17:56:44.499Z,45.20
2022-10-24T17:59:12.019Z,54.65
2022-10-24T18:01:39.890Z,48.28
2022-10-24T18:04:07.260Z,43.25
2022-10-24T18:06:36.342Z,42.10
2022-10-24T18:09:05.492Z,39.78
2022-10-24T18:11:33.261Z,42.03
2022-10-24T18:14:00.631Z,34.10
2022-10-24T18:16:30.574Z,43.20
2022-10-24T18:18:58.451Z,50.00
2022-10-24T18:21:28.375Z,43.13
2022-10-24T18:23:56.906Z,46.50
2022-10-24T18:26:26.474Z,48.10
2022-10-24T18:28:56.569Z,45.80
2022-10-24T18:31:28.639Z,50.83
2022-10-24T18:33:58.880Z,44.53
2022-10-24T18:36:28.226Z,41.60
2022-10-24T18:39:02.241Z,59.42
2022-10-24T18:41:30.387Z,46.63
2022-10-24T18:44:00.596Z,34.72
2022-10-24T18:46:29.700Z,42.47
2022-10-24T18:48:57.345Z,35.13
2022-10-24T18:51:41.795Z,40.17
2022-10-24T18:54:14.962Z,43.45
2022-10-24T18:56:43.142Z,33.08
2022-10-24T18:59:14.119Z,37.90
2022-10-24T19:02:31.421Z,37.67
2022-10-24T19:05:44.093Z,42.13
2022-10-24T19:08:20.043Z,34.75
2022-10-24T19:10:47.679Z,41.03
2022-10-24T19:13:15.234Z,42.85
2022-10-24T19:15:47.697Z,37.15
2022-10-24T19:18:17.406Z,33.63
2022-10-24T19:20:48.200Z,33.03
2022-10-24T19:23:17.433Z,42.85
2022-10-24T19:25:45.527Z,39.33
2022-10-24T19:28:16.835Z,39.10
2022-10-24T19:30:45.269Z,35.97
2022-10-24T19:33:13.988Z,47.78
2022-10-24T19:35:47.541Z,40.38
2022-10-24T19:38:19.324Z,44.58
2022-10-24T19:40:49.808Z,41.45
2022-10-24T19:43:18.228Z,38.75
2022-10-24T19:45:54.943Z,43.38
2022-10-24T19:48:37.156Z,39.83
2022-10-24T19:51:11.241Z,45.00
2022-10-24T19:53:40.960Z,50.88
2022-10-24T19:56:14.313Z,49.40
2022-10-24T19:58:42.713Z,32.40
2022-10-24T20:01:22.446Z,33.38
2022-10-24T20:03:50.766Z,44.40
2022-10-24T20:06:19.472Z,37.25
2022-10-24T20:08:48.327Z,51.22
2022-10-24T20:11:16.862Z,45.40
2022-10-24T20:13:44.607Z,38.78
2022-10-24T20:16:13.703Z,44.75
2022-10-24T20:18:44.291Z,29.17
2022-10-24T20:21:14.042Z,41.40
2022-10-24T20:23:41.988Z,41.28
2022-10-24T20:26:11.197Z,46.28
2022-10-24T20:28:41.023Z,43.38
2022-10-24T20:31:08.406Z,34.47
2022-10-24T20:33:35.621Z,41.53
2022-10-24T20:36:02.897Z,41.75
2022-10-24T20:38:33.019Z,53.55
2022-10-24T20:41:03.413Z,43.67
2022-10-24T20:43:31.984Z,96.80
2022-10-24T20:45:59.508Z,63.13
2022-10-24T20:48:26.775Z,64.07
2022-10-24T20:50:54.153Z,62.15
2022-10-24T20:53:21.721Z,50.17
2022-10-24T20:55:49.057Z,53.30
2022-10-24T20:58:16.353Z,56.38
2022-10-24T21:00:43.743Z,42.83
2022-10-24T21:03:14.472Z,59.40
2022-10-24T21:05:41.870Z,54.20
2022-10-24T21:08:09.306Z,66.00
2022-10-24T21:10:36.796Z,62.38
2022-10-24T21:13:04.199Z,59.60
2022-10-24T21:15:31.758Z,56.53
2022-10-24T21:17:59.386Z,55.45
2022-10-24T21:20:26.723Z,54.58
2022-10-24T21:22:54.040Z,66.00
2022-10-24T21:25:21.403Z,58.67
2022-10-24T21:27:48.879Z,57.80
2022-10-24T21:30:16.823Z,53.60
2022-10-24T21:32:44.089Z,52.45
2022-10-24T21:35:11.324Z,48.60
2022-10-24T21:37:38.707Z,57.20
2022-10-24T21:40:06.524Z,42.50
2022-10-24T21:42:34.364Z,69.03
2022-10-24T21:45:01.741Z,68.82
2022-10-24T21:47:29.089Z,63.45
2022-10-24T21:49:56.353Z,55.25
2022-10-24T21:52:23.790Z,70.88
2022-10-24T21:54:51.166Z,66.32
2022-10-24T21:57:18.560Z,65.40
2022-10-24T21:59:45.882Z,61.33
2022-10-24T22:02:15.116Z,43.00
2022-10-24T22:04:42.530Z,50.67
2022-10-24T22:07:09.893Z,42.42
2022-10-24T22:09:37.255Z,34.85
2022-10-24T22:12:04.843Z,45.70
2022-10-24T22:14:32.208Z,46.58
2022-10-24T22:17:01.316Z,42.40
2022-10-24T22:19:28.690Z,27.63
2022-10-24T22:21:56.103Z,40.70
2022-10-24T22:24:24.287Z,38.65
2022-10-24T22:26:52.336Z,36.97
2022-10-24T22:29:22.184Z,36.30
2022-10-24T22:31:51.008Z,34.50
2022-10-24T22:34:23.280Z,34.88
2022-10-24T22:36:56.441Z,37.60
2022-10-24T22:39:25.593Z,28.35
2022-10-24T22:41:53.743Z,27.92
2022-10-24T22:44:22.125Z,31.08
2022-10-24T22:47:01.603Z,45.45
2022-10-24T22:49:41.023Z,34.33
2022-10-24T22:52:14.149Z,23.42
2022-10-24T22:54:41.884Z,32.53
2022-10-24T22:57:09.464Z,24.65
2022-10-24T22:59:37.442Z,37.05
2022-10-24T23:02:29.436Z,32.30
2022-10-24T23:05:13.859Z,29.80
2022-10-24T23:07:52.066Z,30.20
2022-10-24T23:10:21.866Z,41.08
2022-10-24T23:12:50.400Z,32.58
2022-10-24T23:15:20.064Z,27.80
2022-10-24T23:17:48.484Z,37.25
2022-10-24T23:20:33.737Z,39.70
2022-10-24T23:23:17.227Z,29.53
2022-10-24T23:26:09.086Z,35.75
2022-10-24T23:29:08.488Z,31.30
2022-10-24T23:31:36.108Z,42.65
2022-10-24T23:34:03.924Z,40.45
2022-10-24T23:36:31.600Z,39.33
2022-10-24T23:38:59.245Z,34.40
2022-10-24T23:41:26.886Z,37.53
2022-10-24T23:43:54.542Z,40.10
2022-10-24T23:46:27.839Z,33.38
2022-10-24T23:49:35.971Z,38.20
2022-10-24T23:52:20.147Z,35.80
2022-10-24T23:54:47.708Z,27.63
2022-10-24T23:57:18.551Z,35.25
2022-10-24T23:59:46.037Z,26.30
